Time;durP1;ratioP1;P1;durP2;ratioP2;P2;SDS_P1;SDS_P2;PMS_P1;PMS_P2;Temp;Humidity;BMP_temperature;BMP_pressure;BME280_temperature;BME280_humidity;BME280_pressure;Samples;Min_cycle;Max_cycle;Signal;HPM_P1;HPM_P2
2023/02/19 00:01:39;;;;;;;6.25;2.72;;;;;;;9.54;100.00;100464.66;5026237;28;20041;-78
2023/02/19 00:04:07;;;;;;;5.63;2.35;;;;;;;9.53;100.00;100466.38;5025118;28;20042;-77
2023/02/19 00:06:34;;;;;;;10.48;2.88;;;;;;;9.54;100.00;100475.19;5032423;28;20037;-78
2023/02/19 00:08:59;;;;;;;7.88;2.85;;;;;;;9.61;100.00;100469.00;5054009;22;20045;-70
2023/02/19 00:11:28;;;;;;;6.85;3.20;;;;;;;9.57;100.00;100497.13;5040755;28;20079;-71
2023/02/19 00:13:56;;;;;;;5.75;2.20;;;;;;;9.68;100.00;100472.50;5040456;28;20044;-71
2023/02/19 00:16:26;;;;;;;6.07;2.20;;;;;;;9.68;100.00;100468.09;5037690;28;20059;-71
2023/02/19 00:18:53;;;;;;;5.95;2.33;;;;;;;9.72;100.00;100466.31;5031450;28;20087;-71
2023/02/19 00:21:19;;;;;;;6.97;2.67;;;;;;;9.72;100.00;100461.94;5019320;28;20038;-71
2023/02/19 00:23:51;;;;;;;5.40;2.38;;;;;;;9.70;100.00;100454.94;5022938;28;20030;-71
2023/02/19 00:26:17;;;;;;;5.60;2.88;;;;;;;9.70;100.00;100457.56;5002888;28;20042;-71
2023/02/19 00:28:44;;;;;;;7.68;3.10;;;;;;;9.62;100.00;100454.97;5020452;28;20046;-71
2023/02/19 00:31:17;;;;;;;6.30;3.17;;;;;;;9.68;100.00;100452.28;5021697;28;20091;-71
2023/02/19 00:33:43;;;;;;;7.68;3.75;;;;;;;9.61;100.00;100451.41;5012251;28;20502;-71
2023/02/19 00:36:09;;;;;;;8.50;4.25;;;;;;;9.62;100.00;100447.91;5004664;28;20087;-71
2023/02/19 00:38:38;;;;;;;8.68;4.00;;;;;;;9.59;100.00;100447.06;5004243;28;20034;-70
2023/02/19 00:41:17;;;;;;;8.70;4.18;;;;;;;9.52;100.00;100446.19;5018792;28;20037;-71
2023/02/19 00:43:48;;;;;;;10.18;4.28;;;;;;;9.52;100.00;100450.59;5024585;28;20104;-70
2023/02/19 00:46:16;;;;;;;8.52;4.82;;;;;;;9.43;100.00;100438.31;5004999;28;20038;-70
2023/02/19 00:48:41;;;;;;;7.07;3.92;;;;;;;9.46;100.00;100435.69;5026011;28;20025;-71
2023/02/19 00:51:06;;;;;;;7.82;3.88;;;;;;;9.43;100.00;100431.31;5022667;28;20618;-70
2023/02/19 00:53:32;;;;;;;11.77;4.97;;;;;;;9.41;100.00;100432.19;5026415;28;20088;-71
2023/02/19 00:55:57;;;;;;;9.35;4.80;;;;;;;9.40;100.00;100430.41;5025470;28;20064;-71
2023/02/19 00:58:22;;;;;;;7.60;4.45;;;;;;;9.45;100.00;100433.91;5025264;28;20029;-71
2023/02/19 01:00:48;;;;;;;8.30;4.30;;;;;;;9.44;100.00;100424.28;5023151;28;20128;-70
2023/02/19 01:03:13;;;;;;;6.25;3.67;;;;;;;9.44;100.00;100419.88;5026219;28;20042;-70
2023/02/19 01:05:39;;;;;;;7.80;4.55;;;;;;;9.41;100.00;100421.66;5025593;28;20500;-71
2023/02/19 01:08:05;;;;;;;8.00;4.28;;;;;;;9.39;100.00;100423.41;5025302;28;20098;-71
2023/02/19 01:10:30;;;;;;;8.93;4.18;;;;;;;9.37;100.00;100414.63;5021059;28;20038;-71
2023/02/19 01:12:55;;;;;;;9.98;4.40;;;;;;;9.41;100.00;100406.72;5025493;28;20128;-71
2023/02/19 01:15:21;;;;;;;9.57;4.55;;;;;;;9.41;100.00;100396.19;5015590;28;20073;-70
2023/02/19 01:17:46;;;;;;;7.65;4.00;;;;;;;9.43;100.00;100404.06;5022116;28;20041;-71
2023/02/19 01:20:11;;;;;;;5.35;3.20;;;;;;;9.47;100.00;100392.66;5016133;28;20504;-71
2023/02/19 01:22:37;;;;;;;5.75;3.88;;;;;;;9.46;100.00;100400.53;5013095;28;20033;-70
2023/02/19 01:25:04;;;;;;;6.35;3.38;;;;;;;9.48;100.00;100399.66;5007996;28;20037;-71
2023/02/19 01:27:29;;;;;;;9.27;3.92;;;;;;;9.39;100.00;100397.94;5015249;28;20472;-71
2023/02/19 01:29:54;;;;;;;6.43;3.80;;;;;;;9.46;100.00;100379.47;5012681;28;20073;-71
2023/02/19 01:32:20;;;;;;;8.13;4.35;;;;;;;9.47;100.00;100373.34;5015711;28;20060;-70
2023/02/19 01:34:45;;;;;;;7.40;4.50;;;;;;;9.50;100.00;100363.66;5012770;28;20109;-71
2023/02/19 01:37:11;;;;;;;6.53;4.03;;;;;;;9.51;100.00;100375.06;5024940;28;20030;-70
2023/02/19 01:39:37;;;;;;;7.38;3.78;;;;;;;9.48;100.00;100372.44;5011386;28;20389;-70
2023/02/19 01:42:15;;;;;;;7.75;4.07;;;;;;;9.45;100.00;100365.44;5025522;28;20034;-71
2023/02/19 01:44:46;;;;;;;7.38;4.03;;;;;;;9.45;100.00;100360.16;5025613;28;20042;-71
2023/02/19 01:47:14;;;;;;;6.00;3.87;;;;;;;9.44;100.00;100359.28;5024781;28;20396;-70
2023/02/19 01:49:53;;;;;;;7.15;3.92;;;;;;;9.45;100.00;100360.16;5025658;28;20500;-71
2023/02/19 01:52:33;;;;;;;7.13;3.78;;;;;;;9.37;100.00;100354.91;5025239;28;20497;-71
2023/02/19 01:55:01;;;;;;;7.28;3.72;;;;;;;9.29;100.00;100355.84;5005083;28;20037;-71
2023/02/19 01:57:32;;;;;;;7.53;3.25;;;;;;;9.21;100.00;100351.47;5003284;28;20038;-70
2023/02/19 02:00:02;;;;;;;7.45;3.95;;;;;;;9.11;100.00;100346.25;5014750;28;20484;-70
2023/02/19 02:02:40;;;;;;;8.27;3.55;;;;;;;8.98;100.00;100333.09;5025368;28;20127;-70
2023/02/19 02:05:14;;;;;;;7.00;3.63;;;;;;;8.87;100.00;100340.16;5022212;28;20034;-70
2023/02/19 02:10:24;;;;;;;8.73;3.67;;;;;;;8.76;100.00;100331.44;5001367;28;20068;-70
2023/02/19 02:12:56;;;;;;;7.75;3.88;;;;;;;8.68;100.00;100338.47;5024563;28;20029;-71
2023/02/19 02:15:27;;;;;;;6.82;3.60;;;;;;;8.61;100.00;100329.69;5024460;28;20045;-70
2023/02/19 02:17:59;;;;;;;7.97;3.70;;;;;;;8.62;100.00;100334.09;5023396;28;20034;-70
2023/02/19 02:20:55;;;;;;;8.15;3.70;;;;;;;8.56;100.00;100326.19;5023397;28;20037;-71
2023/02/19 02:24:02;;;;;;;7.75;3.83;;;;;;;8.53;100.00;100337.59;5023417;28;20103;-72
2023/02/19 02:26:44;;;;;;;9.48;5.00;;;;;;;8.48;100.00;100326.19;4967106;28;20611;-72
2023/02/19 02:29:22;;;;;;;11.68;4.65;;;;;;;8.45;100.00;100318.31;5002648;28;20419;-72
2023/02/19 02:32:04;;;;;;;9.23;4.95;;;;;;;8.43;100.00;100304.28;5020233;28;20064;-72
2023/02/19 02:34:40;;;;;;;12.00;4.75;;;;;;;8.45;100.00;100289.38;5019902;28;20416;-72
2023/02/19 02:37:07;;;;;;;8.57;4.70;;;;;;;8.45;100.00;100291.13;5019172;28;20049;-72
2023/02/19 02:39:32;;;;;;;10.80;5.38;;;;;;;8.44;100.00;100279.75;5008211;28;20049;-71
2023/02/19 02:47:49;;;;;;;14.68;5.80;;;;;;;8.52;100.00;100269.22;5018771;28;20000;-72
2023/02/19 02:50:21;;;;;;;12.70;6.47;;;;;;;8.55;100.00;100263.94;5012648;28;20049;-71
2023/02/19 02:55:38;;;;;;;9.77;5.35;;;;;;;8.55;100.00;100258.69;5024610;28;19920;-72
2023/02/19 02:58:04;;;;;;;9.55;6.20;;;;;;;8.53;100.00;100252.53;5021647;28;20055;-72
2023/02/19 03:03:22;;;;;;;10.82;5.60;;;;;;;8.56;100.00;100257.78;5022478;28;20087;-72
2023/02/19 03:05:51;;;;;;;12.60;6.35;;;;;;;8.56;100.00;100252.53;5011007;28;20037;-72
2023/02/19 03:08:23;;;;;;;8.77;5.60;;;;;;;8.55;100.00;100249.03;5021717;28;20033;-72
2023/02/19 03:19:17;;;;;;;8.68;5.28;;;;;;;8.58;100.00;100252.53;5027307;28;20033;-72
2023/02/19 03:19:27;;;;;;;7.88;4.22;;;;;;;8.61;100.00;100242.00;5030849;28;20037;-72
2023/02/19 03:22:10;;;;;;;7.35;4.63;;;;;;;8.59;100.00;100227.97;5013893;28;20037;-72
2023/02/19 03:27:32;;;;;;;5.93;3.67;;;;;;;8.55;100.00;100232.38;5001174;28;20034;-71
2023/02/19 03:30:04;;;;;;;8.10;3.88;;;;;;;8.54;100.00;100226.25;5002778;28;20037;-71
2023/02/19 03:32:35;;;;;;;7.05;2.97;;;;;;;8.58;100.00;100220.97;5013544;28;20034;-71
2023/02/19 03:35:10;;;;;;;6.85;3.40;;;;;;;8.60;100.00;100224.47;5019080;28;20033;-72
2023/02/19 03:37:43;;;;;;;6.18;3.35;;;;;;;8.59;100.00;100214.81;5003385;28;20029;-72
2023/02/19 03:40:09;;;;;;;5.65;2.90;;;;;;;8.56;100.00;100223.59;5019377;28;20037;-72
2023/02/19 03:42:42;;;;;;;7.00;3.40;;;;;;;8.56;100.00;100218.34;5002388;28;20033;-71
2023/02/19 03:45:31;;;;;;;4.75;2.97;;;;;;;8.48;100.00;100214.84;5002905;28;20069;-71
2023/02/19 03:48:17;;;;;;;5.35;2.72;;;;;;;8.43;100.00;100203.47;5010132;28;20073;-71
2023/02/19 03:50:59;;;;;;;6.00;3.10;;;;;;;8.39;100.00;100207.88;5004320;28;20040;-72
2023/02/19 03:53:36;;;;;;;9.00;2.70;;;;;;;8.40;100.00;100208.75;5020470;28;20129;-72
2023/02/19 03:56:18;;;;;;;4.57;2.85;;;;;;;8.37;100.00;100219.25;5010281;28;20369;-72
2023/02/19 03:59:09;;;;;;;6.80;3.20;;;;;;;8.38;100.00;100213.09;5019222;28;20103;-71
2023/02/19 04:02:05;;;;;;;4.25;2.55;;;;;;;8.33;100.00;100211.38;5002216;28;20060;-71
2023/02/19 04:04:36;;;;;;;6.32;3.25;;;;;;;8.33;100.00;100207.84;5025574;28;20403;-72
2023/02/19 04:07:02;;;;;;;7.30;2.97;;;;;;;8.32;100.00;100204.34;5006840;28;20026;-72
2023/02/19 04:09:44;;;;;;;6.18;3.55;;;;;;;8.32;100.00;100209.59;5010977;28;20415;-72
2023/02/19 04:12:15;;;;;;;5.15;3.28;;;;;;;8.32;100.00;100206.09;5021283;28;20435;-72
2023/02/19 04:14:48;;;;;;;5.38;3.80;;;;;;;8.34;100.00;100205.22;4987008;28;20129;-72
2023/02/19 04:17:23;;;;;;;6.72;3.90;;;;;;;8.38;100.00;100199.94;5005481;28;20037;-72
2023/02/19 04:19:50;;;;;;;6.75;3.28;;;;;;;8.32;100.00;100213.97;5022695;28;20049;-72
2023/02/19 04:22:16;;;;;;;7.72;3.58;;;;;;;8.29;100.00;100216.63;5019188;28;20037;-72
2023/02/19 04:24:50;;;;;;;6.25;3.50;;;;;;;8.34;100.00;100207.84;5025510;28;20090;-72
2023/02/19 04:27:16;;;;;;;8.45;4.40;;;;;;;8.36;100.00;100194.72;5020175;28;20044;-71
2023/02/19 04:29:42;;;;;;;8.48;3.85;;;;;;;8.38;100.00;100210.47;5022341;28;20029;-72
2023/02/19 04:32:11;;;;;;;5.82;3.55;;;;;;;8.35;100.00;100208.72;5028161;28;20599;-72
2023/02/19 04:34:37;;;;;;;11.70;4.95;;;;;;;8.37;100.00;100213.97;5024258;28;20650;-72
2023/02/19 04:37:02;;;;;;;6.45;3.97;;;;;;;8.41;100.00;100210.47;5026385;28;20029;-72
2023/02/19 04:39:27;;;;;;;7.55;4.35;;;;;;;8.42;100.00;100209.63;5023884;28;20095;-71
2023/02/19 04:41:53;;;;;;;10.73;4.15;;;;;;;8.43;100.00;100206.09;5025263;28;20037;-72
2023/02/19 04:44:18;;;;;;;7.60;4.05;;;;;;;8.40;100.00;100211.38;5023974;28;20034;-72
2023/02/19 04:46:43;;;;;;;12.73;3.80;;;;;;;8.42;100.00;100220.13;5026790;28;20037;-71
2023/02/19 04:49:09;;;;;;;5.90;3.42;;;;;;;8.48;100.00;100225.38;5024487;28;20507;-72
2023/02/19 04:51:34;;;;;;;6.43;3.47;;;;;;;8.42;100.00;100222.78;5030283;28;20576;-72
2023/02/19 04:54:00;;;;;;;6.55;3.28;;;;;;;8.34;100.00;100223.63;5022063;28;20396;-72
2023/02/19 04:56:25;;;;;;;5.65;2.72;;;;;;;8.32;100.00;100222.75;5029893;28;20480;-71
2023/02/19 04:58:50;;;;;;;4.35;2.45;;;;;;;8.25;100.00;100234.16;5026067;28;20045;-72
2023/02/19 05:01:16;;;;;;;6.18;2.47;;;;;;;8.24;100.00;100219.25;5025429;28;20455;-72
2023/02/19 05:03:41;;;;;;;3.97;2.08;;;;;;;8.18;100.00;100208.75;5022823;28;20121;-72
2023/02/19 05:06:10;;;;;;;4.25;2.00;;;;;;;8.18;100.00;100219.28;5029319;28;20088;-72
2023/02/19 05:08:35;;;;;;;3.83;1.83;;;;;;;8.15;100.00;100219.28;5025045;28;20041;-72
2023/02/19 05:11:03;;;;;;;3.30;1.60;;;;;;;8.09;100.00;100207.00;5029859;28;20032;-72
2023/02/19 05:13:29;;;;;;;3.63;1.80;;;;;;;8.08;100.00;100213.16;5029513;28;20522;-71
2023/02/19 05:15:56;;;;;;;2.20;1.10;;;;;;;8.06;100.00;100203.50;5008281;28;20033;-71
2023/02/19 05:18:22;;;;;;;2.97;1.60;;;;;;;8.04;100.00;100192.13;5022695;28;20076;-72
2023/02/19 05:20:48;;;;;;;2.97;1.58;;;;;;;8.05;100.00;100189.50;5026230;28;20068;-71
2023/02/19 05:23:13;;;;;;;2.92;1.58;;;;;;;8.02;100.00;100194.75;5023067;28;20037;-72
2023/02/19 05:25:38;;;;;;;2.50;1.38;;;;;;;8.06;100.00;100196.50;5028797;28;20034;-72
2023/02/19 05:28:16;;;;;;;4.00;1.60;;;;;;;8.08;100.00;100186.00;5024532;28;20034;-71
2023/02/19 05:30:46;;;;;;;3.75;1.73;;;;;;;8.03;100.00;100193.88;5024605;28;20403;-71
2023/02/19 05:33:12;;;;;;;2.78;1.50;;;;;;;8.06;100.00;100198.25;5021862;28;20037;-71
2023/02/19 05:35:43;;;;;;;2.30;1.20;;;;;;;8.13;100.00;100206.13;5027342;28;20128;-71
2023/02/19 05:38:10;;;;;;;4.20;2.03;;;;;;;8.12;100.00;100200.84;5022551;28;20080;-72
2023/02/19 05:40:35;;;;;;;3.90;1.70;;;;;;;8.16;100.00;100202.63;5021336;28;20076;-72
2023/02/19 05:43:01;;;;;;;4.47;1.90;;;;;;;8.20;100.00;100204.38;5024472;28;20512;-72
2023/02/19 05:45:26;;;;;;;3.13;1.70;;;;;;;8.25;100.00;100207.88;5022206;28;20034;-71
2023/02/19 05:47:52;;;;;;;4.07;1.77;;;;;;;8.25;100.00;100204.34;5023919;28;20037;-71
2023/02/19 05:50:17;;;;;;;3.40;1.50;;;;;;;8.26;100.00;100217.50;5025182;28;20519;-71
2023/02/19 05:52:43;;;;;;;2.63;1.10;;;;;;;8.29;100.00;100220.13;5022691;28;20038;-71
2023/02/19 05:55:09;;;;;;;2.45;1.05;;;;;;;8.31;100.00;100234.16;5023741;28;20659;-71
2023/02/19 05:57:41;;;;;;;5.78;1.92;;;;;;;8.34;100.00;100277.97;5026189;28;20296;-71
2023/02/19 06:00:08;;;;;;;;;;;;;;;7.61;100.00;100263.94;5024339;28;20132;-71
2023/02/19 06:02:38;;;;;;;0.82;0.50;;;;;;;7.22;100.00;100277.84;5021563;28;20318;-71
2023/02/19 06:05:03;;;;;;;1.58;0.70;;;;;;;6.85;100.00;100293.41;5022067;28;20041;-71
2023/02/19 06:07:32;;;;;;;1.85;0.88;;;;;;;6.65;100.00;100295.91;5026729;28;20083;-71
2023/02/19 06:09:58;;;;;;;1.58;0.80;;;;;;;6.59;100.00;100298.50;5052940;22;20518;-74
2023/02/19 06:12:23;;;;;;;1.70;0.77;;;;;;;6.52;100.00;100301.94;5044235;28;20115;-74
2023/02/19 06:14:50;;;;;;;1.52;0.70;;;;;;;6.47;100.00;100286.22;5041178;28;20045;-74
2023/02/19 06:17:15;;;;;;;2.30;1.10;;;;;;;6.43;100.00;100300.16;5041958;28;20029;-74
2023/02/19 06:19:41;;;;;;;1.10;0.60;;;;;;;6.44;100.00;100307.16;5038152;28;20479;-74
2023/02/19 06:22:06;;;;;;;0.95;0.52;;;;;;;6.47;100.00;100322.91;5042638;28;20157;-74
2023/02/19 06:24:32;;;;;;;1.80;0.60;;;;;;;6.36;100.00;100324.56;5041556;28;20488;-74
2023/02/19 06:26:57;;;;;;;2.33;0.80;;;;;;;6.09;100.00;100333.97;5038751;28;20029;-73
2023/02/19 06:29:23;;;;;;;4.63;1.20;;;;;;;5.98;100.00;100343.47;5039185;28;20040;-74
2023/02/19 06:31:48;;;;;;;3.47;1.30;;;;;;;5.69;100.00;100354.50;5025068;28;20037;-74
2023/02/19 06:34:14;;;;;;;3.97;1.35;;;;;;;5.62;100.00;100359.66;5041882;28;20052;-74
2023/02/19 06:36:39;;;;;;;3.42;1.45;;;;;;;5.60;100.00;100364.84;5042536;28;20041;-74
2023/02/19 06:39:05;;;;;;;3.10;1.30;;;;;;;5.55;100.00;100371.78;5040389;28;20033;-74
2023/02/19 06:41:30;;;;;;;2.70;1.17;;;;;;;5.53;100.00;100380.47;5036259;28;20037;-74
2023/02/19 06:43:56;;;;;;;3.33;1.30;;;;;;;5.37;100.00;100392.50;5023242;28;20123;-74
2023/02/19 06:46:21;;;;;;;2.08;0.93;;;;;;;5.22;100.00;100396.69;5039938;28;20033;-75
2023/02/19 06:48:47;;;;;;;2.40;1.00;;;;;;;5.18;100.00;100400.09;5043760;28;20494;-74
2023/02/19 06:51:17;;;;;;;2.85;0.80;;;;;;;5.18;100.00;100388.75;5041834;28;20450;-75
2023/02/19 06:53:42;;;;;;;3.47;1.02;;;;;;;5.19;100.00;100401.00;5040620;28;20518;-74
2023/02/19 06:56:29;;;;;;;1.98;0.95;;;;;;;5.19;100.00;100417.56;5042055;28;20032;-74
2023/02/19 06:58:58;;;;;;;4.43;1.50;;;;;;;5.11;100.00;100429.66;5039653;28;20029;-74
2023/02/19 07:01:25;;;;;;;2.25;1.25;;;;;;;5.03;100.00;100426.03;5024520;28;20671;-74
2023/02/19 07:03:51;;;;;;;2.05;0.90;;;;;;;5.10;100.00;100440.09;5040904;28;20037;-74
2023/02/19 07:06:17;;;;;;;4.15;1.00;;;;;;;5.09;100.00;100438.34;5042877;28;20037;-74
2023/02/19 07:08:42;;;;;;;3.50;0.95;;;;;;;5.13;100.00;100448.00;5039767;28;20037;-74
2023/02/19 07:11:08;;;;;;;3.58;0.75;;;;;;;5.17;100.00;100450.69;5039307;28;20035;-74
2023/02/19 07:13:33;;;;;;;1.98;0.95;;;;;;;5.09;100.00;100469.75;5021162;28;20029;-74
2023/02/19 07:16:01;;;;;;;5.47;1.35;;;;;;;4.95;100.00;100493.97;5042260;28;20123;-74
2023/02/19 07:18:28;;;;;;;3.33;1.20;;;;;;;4.77;100.00;100491.03;5039711;28;20041;-75
2023/02/19 07:20:53;;;;;;;1.63;0.70;;;;;;;4.75;100.00;100498.84;5033322;28;20119;-75
2023/02/19 07:23:19;;;;;;;2.58;0.80;;;;;;;4.59;100.00;100507.28;5039410;28;20494;-74
2023/02/19 07:25:44;;;;;;;3.70;0.70;;;;;;;4.65;100.00;100517.84;5039072;28;20859;-75
2023/02/19 07:28:10;;;;;;;1.85;0.60;;;;;;;4.46;100.00;100529.69;5035436;28;20029;-75
2023/02/19 07:30:35;;;;;;;2.13;0.60;;;;;;;4.39;100.00;100528.69;5034983;28;20040;-75
2023/02/19 07:33:00;;;;;;;2.53;0.50;;;;;;;4.37;100.00;100535.63;5035824;28;20037;-74
2023/02/19 07:35:26;;;;;;;3.80;1.02;;;;;;;4.40;100.00;100542.63;5034723;28;20427;-75
2023/02/19 07:37:51;;;;;;;2.85;0.90;;;;;;;4.34;100.00;100545.13;5032832;28;20400;-75
2023/02/19 07:40:17;;;;;;;3.05;1.15;;;;;;;4.31;100.00;100553.78;5037527;28;20039;-75
2023/02/19 07:42:42;;;;;;;2.92;1.20;;;;;;;4.35;100.00;100552.16;5018772;28;20125;-75
2023/02/19 07:45:07;;;;;;;2.33;1.27;;;;;;;4.46;100.00;100552.34;5035548;28;20033;-75
2023/02/19 07:47:33;;;;;;;5.07;1.65;;;;;;;4.55;100.00;100548.16;5034738;28;20087;-75
2023/02/19 07:49:58;;;;;;;3.30;1.13;;;;;;;4.51;100.00;100567.25;5033847;28;20037;-75
2023/02/19 07:52:23;;;;;;;2.28;0.90;;;;;;;4.46;100.00;100568.03;5036826;28;20040;-75
2023/02/19 07:54:49;;;;;;;1.40;0.60;;;;;;;4.51;100.00;100588.16;5035922;28;20099;-75
2023/02/19 07:57:14;;;;;;;2.50;0.93;;;;;;;4.42;100.00;100594.94;5034335;28;20109;-75
2023/02/19 07:59:39;;;;;;;2.92;0.80;;;;;;;4.29;100.00;100601.66;5037216;28;20040;-75
2023/02/19 08:04:59;;;;;;;1.58;0.43;;;;;;;4.08;100.00;100615.13;5034204;28;20037;-75
2023/02/19 08:07:29;;;;;;;4.88;0.50;;;;;;;3.96;100.00;100628.81;5039012;28;20037;-75
2023/02/19 08:13:18;;;;;;;3.15;0.32;;;;;;;3.70;100.00;100625.63;5037966;28;20022;-75
2023/02/19 08:15:23;;;;;;;0.32;0.15;;;;;;;3.68;100.00;100648.19;5037150;28;20056;-75
2023/02/19 08:17:49;;;;;;;3.35;0.50;;;;;;;3.62;100.00;100658.50;5042482;28;20029;-75
2023/02/19 08:20:14;;;;;;;0.68;0.30;;;;;;;3.54;100.00;100665.22;5036189;28;20029;-75
2023/02/19 08:22:39;;;;;;;0.63;0.10;;;;;;;3.41;100.00;100672.78;5037374;28;20159;-75
2023/02/19 08:25:05;;;;;;;0.90;0.40;;;;;;;3.37;100.00;100678.75;5035679;28;20037;-75
2023/02/19 08:27:30;;;;;;;0.47;0.20;;;;;;;3.44;100.00;100677.19;5040576;28;20034;-75
2023/02/19 08:29:56;;;;;;;3.85;0.38;;;;;;;3.47;100.00;100682.47;5039800;28;20124;-75
2023/02/19 08:32:21;;;;;;;0.77;0.28;;;;;;;3.65;100.00;100689.88;5036512;28;20037;-75
2023/02/19 08:34:47;;;;;;;1.98;0.68;;;;;;;3.72;100.00;100691.78;5040708;28;20029;-74
2023/02/19 08:37:12;;;;;;;1.45;0.17;;;;;;;3.74;100.00;100700.53;5036504;28;20033;-76
2023/02/19 08:39:37;;;;;;;2.65;0.40;;;;;;;3.77;100.00;100708.44;5030751;28;20041;-75
2023/02/19 08:42:03;;;;;;;1.23;0.45;;;;;;;3.76;100.00;100717.13;5035643;28;20116;-74
2023/02/19 08:44:28;;;;;;;1.52;0.70;;;;;;;3.93;100.00;100717.56;5016774;28;20146;-74
2023/02/19 08:46:53;;;;;;;1.77;0.68;;;;;;;4.08;100.00;100722.22;5036064;28;20449;-75
2023/02/19 08:49:19;;;;;;;1.67;0.50;;;;;;;4.07;100.00;100733.53;5034963;28;20048;-75
2023/02/19 08:51:44;;;;;;;2.88;0.65;;;;;;;4.09;100.00;100737.06;5033489;28;20033;-75
2023/02/19 08:54:09;;;;;;;1.40;0.60;;;;;;;4.11;100.00;100754.53;5018222;28;20045;-75
2023/02/19 08:56:35;;;;;;;2.17;0.45;;;;;;;4.05;100.00;100746.53;5044559;28;20037;-75
2023/02/19 08:59:00;;;;;;;1.65;0.75;;;;;;;4.07;100.00;100749.19;5025307;28;20052;-75
2023/02/19 09:01:25;;;;;;;2.03;0.57;;;;;;;4.19;100.00;100746.84;5036997;28;20033;-75
2023/02/19 09:03:51;;;;;;;2.28;0.63;;;;;;;4.39;100.00;100740.34;5044333;28;20116;-75
2023/02/19 09:06:19;;;;;;;1.33;0.50;;;;;;;4.48;100.00;100751.88;5024809;28;20049;-75
2023/02/19 09:08:44;;;;;;;1.23;0.40;;;;;;;4.38;100.00;100759.50;5042582;28;20044;-75
2023/02/19 09:11:10;;;;;;;1.20;0.68;;;;;;;4.44;100.00;100760.50;5043306;28;20040;-75
2023/02/19 09:13:35;;;;;;;1.15;0.60;;;;;;;4.48;100.00;100759.69;5043699;28;20029;-75
2023/02/19 09:16:05;;;;;;;1.20;0.30;;;;;;;4.45;100.00;100770.09;5042317;28;20488;-75
2023/02/19 09:18:30;;;;;;;0.93;0.60;;;;;;;4.41;100.00;100770.88;5038221;28;20094;-75
2023/02/19 09:21:00;;;;;;;0.77;0.40;;;;;;;4.43;100.00;100784.84;5029788;28;20029;-75
2023/02/19 09:23:25;;;;;;;9.27;0.70;;;;;;;4.47;100.00;100777.13;5039045;28;20086;-75
2023/02/19 09:25:56;;;;;;;0.68;0.43;;;;;;;4.54;100.00;100779.03;5033525;28;20037;-75
2023/02/19 09:28:21;;;;;;;0.90;0.25;;;;;;;4.60;100.00;100791.34;5039506;28;20044;-75
2023/02/19 09:30:47;;;;;;;1.20;0.10;;;;;;;4.56;100.00;100793.03;5041542;28;20041;-77
2023/02/19 09:33:12;;;;;;;0.50;0.28;;;;;;;4.64;100.00;100803.66;5040938;28;20037;-75
2023/02/19 09:35:39;;;;;;;2.42;0.52;;;;;;;4.72;100.00;100811.66;5044267;28;20037;-75
2023/02/19 09:38:04;;;;;;;1.77;0.65;;;;;;;4.70;100.00;100811.63;5041808;28;20045;-75
2023/02/19 09:40:30;;;;;;;3.65;0.70;;;;;;;4.80;100.00;100816.22;5041571;28;20124;-75
2023/02/19 09:42:55;;;;;;;1.98;0.80;;;;;;;4.93;100.00;100812.13;5041069;28;20044;-74
2023/02/19 09:45:23;;;;;;;2.22;0.93;;;;;;;5.00;100.00;100818.34;5023679;28;20045;-75
2023/02/19 09:47:53;;;;;;;4.93;1.48;;;;;;;5.11;100.00;100810.72;5043271;28;20037;-75
2023/02/19 09:50:25;;;;;;;2.03;0.73;;;;;;;5.15;100.00;100831.75;5042427;28;20499;-75
2023/02/19 09:52:57;;;;;;;4.25;0.88;;;;;;;5.24;100.00;100834.59;5026176;28;20550;-75
2023/02/19 09:55:35;;;;;;;2.03;0.52;;;;;;;5.14;100.00;100836.97;5035033;28;20041;-76
2023/02/19 09:58:25;;;;;;;1.90;0.50;;;;;;;5.26;100.00;100848.56;5040134;28;20033;-75
2023/02/19 10:00:52;;;;;;;3.10;0.77;;;;;;;5.17;100.00;100853.63;5041249;28;20033;-75
2023/02/19 10:03:24;;;;;;;1.58;0.50;;;;;;;5.08;100.00;100852.53;5042294;28;20033;-75
2023/02/19 10:05:52;;;;;;;3.63;0.40;;;;;;;5.18;100.00;100864.97;5043950;28;20060;-75
2023/02/19 10:08:20;;;;;;;2.47;0.70;;;;;;;5.30;100.00;100869.56;5039222;28;20037;-75
2023/02/19 10:10:45;;;;;;;4.10;0.50;;;;;;;5.31;100.00;100871.34;5025672;28;20391;-75
2023/02/19 10:13:20;;;;;;;4.80;0.60;;;;;;;5.40;100.00;100879.38;5041006;28;20037;-76
2023/02/19 10:15:52;;;;;;;2.00;0.60;;;;;;;5.32;100.00;100881.84;5037794;28;20132;-75
2023/02/19 10:18:22;;;;;;;3.30;0.50;;;;;;;5.28;100.00;100896.59;5028887;28;20144;-76
2023/02/19 10:20:49;;;;;;;3.63;1.17;;;;;;;5.33;100.00;100895.81;5041801;28;20029;-76
2023/02/19 10:23:15;;;;;;;3.38;0.70;;;;;;;5.28;100.00;100899.19;5040747;28;20037;-76
2023/02/19 10:25:48;;;;;;;3.55;1.02;;;;;;;5.19;100.00;100890.28;5037760;28;20094;-76
2023/02/19 10:28:19;;;;;;;1.40;0.45;;;;;;;5.16;100.00;100893.72;5040241;28;20036;-76
2023/02/19 10:30:49;;;;;;;2.30;0.80;;;;;;;5.17;100.00;100902.44;5022599;28;20037;-76
2023/02/19 10:33:15;;;;;;;2.35;0.55;;;;;;;5.09;100.00;100902.28;5040987;28;20496;-76
2023/02/19 10:36:02;;;;;;;2.05;0.68;;;;;;;5.18;100.00;100910.31;5023755;28;20037;-77
2023/02/19 10:38:37;;;;;;;3.05;0.68;;;;;;;5.04;100.00;100912.63;5036202;28;20033;-77
2023/02/19 10:41:22;;;;;;;3.00;0.57;;;;;;;4.94;100.00;100908.03;5037865;28;20116;-76
2023/02/19 10:43:59;;;;;;;1.88;0.47;;;;;;;4.93;100.00;100921.09;5037808;28;20039;-76
2023/02/19 10:46:28;;;;;;;2.33;0.30;;;;;;;4.97;100.00;100918.56;5042029;28;20128;-76
2023/02/19 10:49:03;;;;;;;2.67;0.75;;;;;;;4.96;100.00;100918.56;5042627;28;20120;-76
2023/02/19 10:51:36;;;;;;;1.05;0.43;;;;;;;4.97;100.00;100928.16;5017600;28;20030;-77
2023/02/19 10:54:06;;;;;;;0.80;0.40;;;;;;;5.08;100.00;100941.47;5037733;28;20506;-77
2023/02/19 10:56:32;;;;;;;1.45;0.68;;;;;;;5.39;100.00;100948.28;5037392;28;20091;-77
2023/02/19 10:59:24;;;;;;;5.40;0.63;;;;;;;5.60;100.00;100951.34;5039470;28;20122;-77
2023/02/19 11:02:01;;;;;;;1.55;0.55;;;;;;;5.71;100.00;100957.72;5024264;28;20045;-77
2023/02/19 11:04:34;;;;;;;2.47;0.52;;;;;;;5.82;100.00;100965.78;5037070;28;20033;-77
2023/02/19 11:07:12;;;;;;;7.90;1.75;;;;;;;6.03;100.00;100961.84;5023909;28;20036;-78
2023/02/19 11:09:44;;;;;;;3.25;1.15;;;;;;;6.10;98.23;100972.47;5039374;28;20033;-77
2023/02/19 11:12:12;;;;;;;6.15;0.75;;;;;;;6.11;98.24;100970.75;5037359;28;20036;-78
2023/02/19 11:14:43;;;;;;;3.78;0.40;;;;;;;6.31;100.00;100965.84;5040264;28;20053;-78
2023/02/19 11:17:27;;;;;;;5.05;1.33;;;;;;;6.44;98.43;100980.06;5042146;28;20571;-78
2023/02/19 11:19:56;;;;;;;2.35;0.40;;;;;;;6.39;94.17;100974.72;5035549;28;20034;-78
2023/02/19 11:22:32;;;;;;;4.03;0.88;;;;;;;6.62;95.31;100972.50;5042838;28;20037;-78
2023/02/19 11:25:17;;;;;;;4.68;1.52;;;;;;;6.79;95.93;100978.94;5041739;28;20029;-78
2023/02/19 11:28:21;;;;;;;1.77;0.40;;;;;;;6.85;93.39;100972.91;5038698;28;20059;-78
2023/02/19 11:30:47;;;;;;;4.32;0.65;;;;;;;6.80;90.99;100987.69;5022546;28;20496;-78
2023/02/19 11:33:21;;;;;;;127.80;61.17;;;;;;;6.90;90.88;100973.84;5043088;28;20035;-78
2023/02/19 11:35:47;;;;;;;148.50;137.30;;;;;;;6.85;90.91;100977.28;5041707;28;20041;-78
2023/02/19 11:38:15;;;;;;;0.45;0.45;;;;;;;6.95;92.09;100992.31;5043833;28;20036;-79
2023/02/19 11:41:21;;;;;;;0.40;0.40;;;;;;;7.08;89.03;100988.13;5022425;28;20453;-78
2023/02/19 11:44:24;;;;;;;0.60;0.60;;;;;;;7.02;89.11;100987.19;4946422;28;20169;-78
2023/02/19 11:47:05;;;;;;;4.65;4.43;;;;;;;6.73;85.41;100996.31;5045055;28;20079;-78
2023/02/19 11:50:03;;;;;;;0.10;0.10;;;;;;;6.53;87.83;101011.72;5042140;28;20565;-78
2023/02/19 11:52:52;;;;;;;0.00;0.00;;;;;;;6.41;90.57;101017.59;5037589;28;20080;-78
2023/02/19 11:55:32;;;;;;;0.00;0.00;;;;;;;6.43;92.22;101001.91;5037662;28;20037;-78
2023/02/19 11:58:33;;;;;;;0.00;0.00;;;;;;;6.50;89.85;101004.66;5040710;28;20049;-78
2023/02/19 12:01:21;;;;;;;0.08;0.08;;;;;;;6.87;88.15;101007.94;5033427;28;20091;-77
2023/02/19 12:04:09;;;;;;;0.00;0.00;;;;;;;6.88;86.52;101020.19;5022416;28;20369;-78
2023/02/19 12:06:55;;;;;;;0.00;0.00;;;;;;;6.91;85.95;101014.97;5024623;28;20033;-78
2023/02/19 12:09:46;;;;;;;0.10;0.10;;;;;;;7.09;80.11;101037.13;5039877;28;20044;-78